Time;durP1;ratioP1;P1;durP2;ratioP2;P2;SDS_P1;SDS_P2;PMS_P1;PMS_P2;Temp;Humidity;BMP_temperature;BMP_pressure;BME280_temperature;BME280_humidity;BME280_pressure;Samples;Min_cycle;Max_cycle;Signal;HPM_P1;HPM_P2
2021/10/28 00:16:15;;;;;;;17.92;13.35;;;;;;;12.90;86.32;101965.34;10247538;28;20044;-69
2021/10/28 00:21:12;;;;;;;22.08;13.82;;;;;;;12.84;86.43;101965.44;10253073;28;20132;-70
2021/10/28 00:26:10;;;;;;;19.73;13.25;;;;;;;12.82;86.89;101967.66;10246656;28;20079;-68
2021/10/28 00:31:08;;;;;;;20.73;12.30;;;;;;;12.81;86.90;101971.53;10256835;28;20041;-67
2021/10/28 00:36:06;;;;;;;19.08;12.70;;;;;;;12.78;86.83;101969.38;10252590;28;20510;-70
2021/10/28 00:41:03;;;;;;;20.20;12.40;;;;;;;12.74;87.33;101971.13;10253602;28;20045;-69
2021/10/28 00:46:02;;;;;;;22.13;13.30;;;;;;;12.69;87.20;101971.19;10250731;28;20041;-69
2021/10/28 00:50:59;;;;;;;20.75;11.25;;;;;;;12.63;87.38;101969.69;10254306;28;20578;-69
2021/10/28 00:55:56;;;;;;;17.38;12.05;;;;;;;12.56;87.41;101970.06;10263194;28;20114;-69
2021/10/28 01:00:55;;;;;;;22.65;14.32;;;;;;;12.50;87.37;101964.97;10264445;28;20049;-69
2021/10/28 01:05:52;;;;;;;17.70;13.02;;;;;;;12.45;87.84;101973.28;10260328;28;20059;-71
2021/10/28 01:10:50;;;;;;;21.25;13.32;;;;;;;12.43;88.03;101970.81;10261338;28;20573;-68
2021/10/28 01:15:48;;;;;;;22.80;12.23;;;;;;;12.42;88.16;101963.72;10261257;28;20699;-68
2021/10/28 01:20:48;;;;;;;21.70;13.45;;;;;;;12.48;88.16;101961.69;10266901;28;20068;-69
2021/10/28 01:26:02;;;;;;;19.73;11.55;;;;;;;12.47;88.11;101966.38;10255969;28;20407;-69
2021/10/28 01:31:02;;;;;;;18.15;12.80;;;;;;;12.49;87.33;101968.81;10257568;28;20044;-67
2021/10/28 01:35:59;;;;;;;19.63;11.60;;;;;;;12.51;87.72;101956.44;10259029;28;20045;-67
2021/10/28 01:40:59;;;;;;;22.55;12.00;;;;;;;12.53;87.77;101953.38;10269397;28;20098;-67
2021/10/28 01:45:55;;;;;;;16.98;11.18;;;;;;;12.50;87.85;101960.28;10259412;28;20049;-69
2021/10/28 01:50:53;;;;;;;18.25;11.02;;;;;;;12.57;87.94;101948.91;10261485;28;20119;-69
2021/10/28 01:55:50;;;;;;;17.90;11.63;;;;;;;12.59;87.63;101947.50;10262956;28;20045;-70
2021/10/28 02:00:47;;;;;;;20.95;12.85;;;;;;;12.58;87.19;101945.06;10265573;28;20049;-70
2021/10/28 02:05:45;;;;;;;16.25;11.82;;;;;;;12.56;87.09;101947.31;10258543;28;20053;-68
2021/10/28 02:10:42;;;;;;;16.15;10.90;;;;;;;12.58;87.21;101942.34;10255824;28;20046;-71
2021/10/28 02:15:42;;;;;;;24.10;14.02;;;;;;;12.56;86.96;101947.31;10254442;28;20079;-70
2021/10/28 02:20:39;;;;;;;16.65;12.35;;;;;;;12.55;87.26;101949.22;10266385;28;20107;-69
2021/10/28 02:25:36;;;;;;;20.92;14.02;;;;;;;12.54;87.29;101941.31;10264692;28;20044;-69
2021/10/28 02:30:33;;;;;;;29.42;17.17;;;;;;;12.52;87.23;101938.03;10257706;28;20045;-69
2021/10/28 02:35:30;;;;;;;28.02;19.92;;;;;;;12.41;87.61;101929.97;10246889;28;20056;-69
2021/10/28 02:40:28;;;;;;;37.70;21.00;;;;;;;12.34;88.08;101924.06;10253224;28;20049;-70
2021/10/28 02:45:25;;;;;;;31.25;20.63;;;;;;;12.38;88.18;101936.06;10249925;28;20049;-70
2021/10/28 02:50:23;;;;;;;31.13;18.75;;;;;;;12.39;88.15;101932.22;10255236;28;20057;-70
2021/10/28 02:55:20;;;;;;;26.30;16.38;;;;;;;12.37;87.69;101930.88;10251826;28;20076;-67
2021/10/28 03:00:16;;;;;;;27.95;16.98;;;;;;;12.28;87.11;101941.75;10250703;28;20053;-69
2021/10/28 03:05:13;;;;;;;23.45;15.10;;;;;;;12.30;87.15;101934.03;10247495;28;20049;-70
2021/10/28 03:10:10;;;;;;;27.30;16.63;;;;;;;12.26;87.50;101924.75;10251259;28;20415;-68
2021/10/28 03:15:09;;;;;;;25.60;16.55;;;;;;;12.27;87.52;101923.63;10245240;28;20659;-70
2021/10/28 03:30:25;;;;;;;24.50;14.75;;;;;;;12.25;87.39;101920.38;10254470;28;23979;-68
2021/10/28 03:35:22;;;;;;;19.38;12.95;;;;;;;12.29;87.31;101915.94;10272967;28;20061;-69
2021/10/28 04:21:39;;;;;;;23.77;13.65;;;;;;;11.77;86.75;101910.41;10244407;28;20041;-73
2021/10/28 04:31:50;;;;;;;21.67;12.30;;;;;;;11.47;87.79;101908.94;10241826;28;20049;-73
2021/10/28 04:36:47;;;;;;;21.52;14.05;;;;;;;11.41;87.88;101901.88;10238144;28;20064;-72
2021/10/28 04:41:44;;;;;;;23.40;12.82;;;;;;;11.32;88.50;101903.66;10252991;28;20072;-72
2021/10/28 04:46:40;;;;;;;18.00;13.55;;;;;;;11.22;88.19;101912.00;10233105;28;20041;-74
2021/10/28 04:51:37;;;;;;;22.17;12.88;;;;;;;11.15;88.78;101904.94;10235846;28;20148;-74
2021/10/28 04:56:34;;;;;;;18.50;12.27;;;;;;;11.05;88.88;101899.63;10235089;28;20136;-74
2021/10/28 05:01:30;;;;;;;20.20;11.43;;;;;;;10.97;88.49;101908.44;10245279;28;20072;-74
2021/10/28 05:06:27;;;;;;;19.45;11.98;;;;;;;10.87;88.94;101901.19;10247419;28;20051;-74
2021/10/28 05:11:25;;;;;;;22.15;12.73;;;;;;;10.82;88.56;101901.25;10248475;28;20102;-74
2021/10/28 05:16:21;;;;;;;18.60;12.40;;;;;;;10.73;89.12;101892.84;10255630;28;20633;-74
2021/10/28 05:21:19;;;;;;;22.27;12.45;;;;;;;10.66;89.23;101897.84;10259136;28;20150;-74
2021/10/28 05:26:15;;;;;;;22.80;12.15;;;;;;;10.62;89.76;101896.78;10248642;28;20593;-74
2021/10/28 05:31:12;;;;;;;23.08;12.75;;;;;;;10.55;89.39;101906.44;10238794;28;20073;-74
2021/10/28 05:36:08;;;;;;;19.38;12.05;;;;;;;10.47;89.26;101896.97;10254045;28;20049;-74
2021/10/28 05:41:05;;;;;;;19.05;12.05;;;;;;;10.41;89.77;101895.38;10254139;28;20499;-72
2021/10/28 05:46:01;;;;;;;22.73;13.52;;;;;;;10.39;90.26;101903.03;10253256;28;20564;-74
2021/10/28 05:51:00;;;;;;;21.42;11.98;;;;;;;10.32;90.32;101895.16;10248162;28;20083;-74
2021/10/28 05:55:56;;;;;;;16.92;11.95;;;;;;;10.30;90.40;101900.94;10247460;28;20129;-74
2021/10/28 06:00:53;;;;;;;21.80;12.13;;;;;;;10.25;90.88;101897.38;10251785;28;20049;-74
2021/10/28 06:05:49;;;;;;;19.52;11.93;;;;;;;10.20;90.74;101898.25;10250379;28;20049;-74
2021/10/28 06:10:46;;;;;;;21.10;13.00;;;;;;;10.17;90.63;101907.03;10261874;28;20553;-74
2021/10/28 06:15:43;;;;;;;19.77;12.38;;;;;;;10.15;90.82;101903.75;10251442;28;20099;-73
2021/10/28 06:20:40;;;;;;;19.80;11.48;;;;;;;10.07;90.95;101896.16;10258495;28;20049;-74
2021/10/28 06:25:36;;;;;;;19.08;11.90;;;;;;;10.07;90.47;101902.47;10266504;28;20905;-74
2021/10/28 06:30:33;;;;;;;21.15;12.18;;;;;;;10.04;90.03;101907.66;10259213;28;20661;-74
2021/10/28 06:35:30;;;;;;;19.63;9.90;;;;;;;10.01;90.09;101902.78;10254562;28;20045;-74
2021/10/28 06:40:27;;;;;;;19.35;11.55;;;;;;;9.97;90.32;101902.53;10247752;28;20132;-74
2021/10/28 06:45:23;;;;;;;18.48;11.43;;;;;;;9.94;90.82;101902.28;10262266;28;20143;-74
2021/10/28 06:50:29;;;;;;;19.05;10.82;;;;;;;9.94;90.19;101896.84;10250792;28;20131;-74
2021/10/28 07:06:11;;;;;;;15.15;10.18;;;;;;;9.93;90.59;101896.00;10250693;28;20551;-74
2021/10/28 07:11:11;;;;;;;21.83;11.13;;;;;;;9.92;91.04;101893.56;10251634;28;20515;-74
2021/10/28 07:16:24;;;;;;;17.92;10.07;;;;;;;9.92;91.61;101891.63;10248531;28;20079;-74
2021/10/28 08:04:53;;;;;;;19.58;11.95;;;;;;;10.12;91.37;101909.81;10234858;28;20522;-74
2021/10/28 08:13:49;;;;;;;21.23;12.88;;;;;;;10.22;90.88;101900.72;10241013;28;20045;-75
2021/10/28 08:19:07;;;;;;;22.95;13.07;;;;;;;10.25;91.56;101890.00;10247522;28;20064;-74
2021/10/28 08:29:32;;;;;;;21.17;13.38;;;;;;;10.40;91.12;101888.28;10241666;28;20665;-74
2021/10/28 08:34:27;;;;;;;21.13;12.85;;;;;;;10.55;90.77;101885.38;10248340;28;20271;-74
2021/10/28 08:39:24;;;;;;;24.10;13.93;;;;;;;10.67;90.46;101883.06;10218033;28;20136;-74
2021/10/28 08:44:22;;;;;;;20.67;13.85;;;;;;;10.82;90.67;101892.22;10250993;28;20103;-74
2021/10/28 08:49:24;;;;;;;23.65;14.00;;;;;;;10.94;90.23;101887.16;10247122;28;20044;-74
2021/10/28 09:26:09;;;;;;;19.63;13.13;;;;;;;11.55;89.00;101842.50;10258293;28;20120;-75
2021/10/28 09:31:28;;;;;;;17.17;11.35;;;;;;;11.64;88.94;101839.13;10263272;28;20068;-74
2021/10/28 09:47:39;;;;;;;14.32;9.98;;;;;;;11.93;86.28;101838.97;10244984;28;20108;-74
2021/10/28 09:52:47;;;;;;;14.75;9.13;;;;;;;12.04;85.97;101836.84;10253615;28;20068;-74
2021/10/28 09:57:51;;;;;;;22.75;10.63;;;;;;;12.12;85.82;101838.91;10255786;28;20598;-74
2021/10/28 10:02:55;;;;;;;13.93;9.05;;;;;;;12.26;85.88;101827.97;10253546;28;20095;-74
2021/10/28 10:07:54;;;;;;;16.25;8.98;;;;;;;12.37;84.88;101819.25;10260499;28;20103;-73
2021/10/28 10:12:51;;;;;;;15.20;9.60;;;;;;;12.51;85.18;101823.94;10264596;28;20045;-74
2021/10/28 10:17:54;;;;;;;13.35;9.25;;;;;;;12.64;85.12;101817.63;10254311;28;20069;-74
2021/10/28 10:23:03;;;;;;;15.20;9.23;;;;;;;12.72;85.25;101819.69;10251988;28;20037;-74
2021/10/28 11:28:09;;;;;;;8.57;5.55;;;;;;;14.04;79.26;101732.53;10255927;28;20102;-74
2021/10/28 11:33:25;;;;;;;10.85;5.75;;;;;;;14.17;78.17;101741.00;10243101;28;20837;-74
2021/10/28 13:28:06;;;;;;;4.35;1.40;;;;;;;17.75;61.72;101578.38;10246315;28;20037;-74
2021/10/28 14:00:33;;;;;;;4.30;1.10;;;;;;;19.02;55.74;101523.59;10249103;28;20049;-74
2021/10/28 14:26:32;;;;;;;4.93;1.30;;;;;;;18.20;54.66;101506.28;10251729;28;20231;-74
2021/10/28 15:38:51;;;;;;;5.10;1.23;;;;;;;15.66;64.13;101448.66;10219829;28;20128;-73
2021/10/28 16:00:16;;;;;;;6.60;2.90;;;;;;;15.22;67.26;101426.03;10247973;28;20083;-72
2021/10/28 16:25:46;;;;;;;4.97;2.08;;;;;;;14.59;70.27;101412.06;10243262;28;20111;-73
2021/10/28 16:30:47;;;;;;;5.53;2.15;;;;;;;14.45;71.26;101406.72;10254241;28;20048;-72
2021/10/28 16:35:44;;;;;;;5.03;2.53;;;;;;;14.36;71.81;101408.66;10255470;28;20045;-72
2021/10/28 16:40:42;;;;;;;7.65;3.13;;;;;;;14.27;71.64;101413.38;10255339;28;20095;-74
2021/10/28 16:45:38;;;;;;;7.75;3.13;;;;;;;14.20;71.71;101404.81;10244351;28;20579;-73
2021/10/28 16:50:35;;;;;;;7.10;2.83;;;;;;;14.12;71.99;101409.19;10247506;28;20136;-74
2021/10/28 16:55:32;;;;;;;7.75;4.40;;;;;;;14.06;71.79;101399.50;10249499;28;20049;-73
2021/10/28 17:00:28;;;;;;;6.68;3.33;;;;;;;14.01;71.42;101397.72;10240433;28;20503;-73
2021/10/28 17:05:30;;;;;;;6.28;3.33;;;;;;;13.94;71.59;101391.09;10247027;28;20049;-74
2021/10/28 17:10:27;;;;;;;9.90;3.47;;;;;;;13.91;71.96;101398.06;10257581;28;20045;-73
2021/10/28 17:15:24;;;;;;;5.85;3.17;;;;;;;13.84;71.72;101397.72;10252551;28;20796;-74
2021/10/28 17:20:21;;;;;;;6.45;2.80;;;;;;;13.79;72.05;101395.94;10250553;28;20384;-72
2021/10/28 17:25:20;;;;;;;6.38;2.85;;;;;;;13.74;72.25;101398.03;10237875;28;20076;-72
2021/10/28 17:30:16;;;;;;;9.63;3.70;;;;;;;13.68;71.66;101405.66;10245518;28;20226;-72
2021/10/28 17:35:14;;;;;;;9.07;4.25;;;;;;;13.60;72.54;101393.53;10252450;28;20556;-72
2021/10/28 17:40:10;;;;;;;10.65;4.65;;;;;;;13.56;72.43;101392.53;10247453;28;20064;-71
2021/10/28 17:45:11;;;;;;;7.95;3.92;;;;;;;13.53;72.45;101387.69;10247576;28;20087;-73
2021/10/28 17:50:08;;;;;;;7.43;3.75;;;;;;;13.47;72.94;101383.47;10248745;28;20044;-73
2021/10/28 17:55:07;;;;;;;9.68;4.40;;;;;;;13.40;73.70;101389.44;10251006;28;20474;-72
2021/10/28 18:00:07;;;;;;;11.80;4.75;;;;;;;13.33;74.91;101378.13;10259905;28;20061;-72
2021/10/28 18:05:04;;;;;;;11.65;5.90;;;;;;;13.23;75.46;101379.22;10201970;28;20065;-72
2021/10/28 18:10:03;;;;;;;13.23;7.05;;;;;;;13.19;76.84;101378.22;10241652;28;20048;-72
2021/10/28 18:14:59;;;;;;;16.02;8.02;;;;;;;13.12;77.87;101377.88;10248255;28;20068;-72
2021/10/28 18:19:56;;;;;;;13.40;6.82;;;;;;;13.08;78.88;101376.91;10238221;28;20041;-73
2021/10/28 18:24:53;;;;;;;12.57;7.60;;;;;;;13.02;79.72;101384.47;10245302;28;20040;-73
2021/10/28 18:29:49;;;;;;;14.32;8.85;;;;;;;12.99;80.61;101376.06;10243456;28;20120;-72
2021/10/28 18:34:46;;;;;;;17.17;8.35;;;;;;;12.93;81.75;101380.91;10234571;28;20103;-74
2021/10/28 18:39:43;;;;;;;15.18;8.85;;;;;;;12.91;82.33;101376.84;10251586;28;20406;-73
2021/10/28 18:44:40;;;;;;;17.80;10.15;;;;;;;12.83;82.30;101353.72;10239407;28;20136;-72
2021/10/28 18:49:36;;;;;;;13.98;9.75;;;;;;;12.78;83.24;101346.44;10248967;28;20068;-73
2021/10/28 18:54:33;;;;;;;14.43;9.35;;;;;;;12.74;83.14;101337.25;10237925;28;20569;-73
2021/10/28 18:59:29;;;;;;;14.38;9.48;;;;;;;12.67;83.79;101339.66;10239783;28;20127;-72
2021/10/28 19:04:26;;;;;;;14.65;9.63;;;;;;;12.60;84.25;101333.78;10239671;28;20040;-71
2021/10/28 19:09:22;;;;;;;14.50;9.55;;;;;;;12.58;84.17;101342.34;10237199;28;20069;-71
2021/10/28 19:14:19;;;;;;;18.42;10.27;;;;;;;12.56;84.50;101330.06;10247324;28;20061;-72
2021/10/28 19:19:16;;;;;;;14.98;10.52;;;;;;;12.49;85.06;101326.97;10230998;28;20049;-73
2021/10/28 19:24:13;;;;;;;15.18;10.43;;;;;;;12.46;85.34;101333.06;10242220;28;20095;-72
2021/10/28 19:29:10;;;;;;;22.67;11.55;;;;;;;12.39;85.04;101325.28;10204800;28;20508;-71
2021/10/28 19:34:07;;;;;;;19.08;11.27;;;;;;;12.35;85.22;101330.63;10227802;28;20088;-72
2021/10/28 19:49:30;;;;;;;14.35;10.63;;;;;;;12.23;85.55;101313.94;10235796;28;20087;-72
2021/10/28 19:54:27;;;;;;;15.63;10.77;;;;;;;12.16;85.69;101308.06;10229121;28;20158;-71
2021/10/28 19:59:27;;;;;;;17.02;10.85;;;;;;;12.09;85.89;101304.97;10233951;28;20069;-72
2021/10/28 20:04:54;;;;;;;14.43;11.13;;;;;;;12.03;85.95;101303.50;10237989;28;20044;-71
2021/10/28 20:20:14;;;;;;;17.15;11.25;;;;;;;11.87;85.82;101290.19;10245684;28;20487;-71
2021/10/28 20:25:21;;;;;;;14.98;10.70;;;;;;;11.83;86.36;101293.81;10249899;28;20080;-72
2021/10/28 20:30:24;;;;;;;15.63;10.68;;;;;;;11.84;85.79;101293.53;10237947;28;20042;-71
2021/10/28 20:40:21;;;;;;;19.48;11.68;;;;;;;11.76;85.77;101288.78;10242252;28;20072;-71
2021/10/28 20:45:24;;;;;;;20.48;12.40;;;;;;;11.71;85.84;101280.69;10249801;28;20073;-72
2021/10/28 20:50:22;;;;;;;;;;;;;;;11.69;85.67;101289.22;10234914;28;20092;-71
2021/10/28 20:55:19;;;;;;;14.48;10.05;;;;;;;11.64;85.56;101280.31;10242144;28;19983;-70
2021/10/28 21:00:18;;;;;;;13.88;10.45;;;;;;;11.61;85.46;101280.94;10252059;28;20111;-70
2021/10/28 21:05:22;;;;;;;19.52;11.10;;;;;;;11.51;85.56;101271.88;10249522;28;20064;-71
2021/10/28 21:10:23;;;;;;;17.45;11.00;;;;;;;11.46;85.49;101276.63;10246759;28;20057;-70
2021/10/28 21:15:20;;;;;;;16.30;10.88;;;;;;;11.41;85.74;101277.56;10258418;28;20091;-67
2021/10/28 21:20:17;;;;;;;19.58;12.45;;;;;;;11.34;86.39;101269.78;10259739;28;20045;-67
2021/10/28 21:25:14;;;;;;;15.20;10.55;;;;;;;11.28;86.06;101278.41;10261167;28;20130;-68
2021/10/28 21:30:12;;;;;;;15.52;10.70;;;;;;;11.24;86.31;101266.47;10251568;28;20099;-67
2021/10/28 21:35:12;;;;;;;16.70;11.43;;;;;;;11.22;85.75;101271.44;10258686;28;20525;-67
2021/10/28 21:40:11;;;;;;;18.10;11.23;;;;;;;11.19;86.11;101269.34;10260252;28;20101;-67
2021/10/28 21:45:14;;;;;;;13.90;10.18;;;;;;;11.12;85.60;101270.56;10254188;28;20087;-67
2021/10/28 21:50:12;;;;;;;15.50;10.93;;;;;;;11.07;85.91;101267.94;10259138;28;20073;-67
2021/10/28 21:55:24;;;;;;;18.02;11.43;;;;;;;10.94;86.07;101269.56;10253539;28;20076;-68
2021/10/28 22:26:21;;;;;;;15.15;9.65;;;;;;;10.72;85.96;101247.63;10258840;28;20063;-68
2021/10/28 22:31:18;;;;;;;16.88;10.13;;;;;;;10.68;85.32;101244.69;10253715;28;20068;-67
2021/10/28 22:36:23;;;;;;;14.85;9.38;;;;;;;10.65;86.03;101245.31;10252682;28;20061;-67
2021/10/28 22:41:25;;;;;;;14.88;9.82;;;;;;;10.57;86.03;101240.56;10256353;28;20049;-67
2021/10/28 22:46:22;;;;;;;16.08;9.90;;;;;;;10.48;86.14;101225.97;10252679;28;20076;-67
2021/10/28 22:51:18;;;;;;;13.70;9.60;;;;;;;10.43;85.87;101221.41;10236296;28;20045;-68
2021/10/28 22:56:15;;;;;;;16.92;9.63;;;;;;;10.44;85.89;101224.97;10230745;28;20069;-68
2021/10/28 23:21:42;;;;;;;15.13;9.55;;;;;;;10.16;85.57;101203.06;10239612;28;20067;-68
2021/10/28 23:26:38;;;;;;;14.38;9.65;;;;;;;10.08;86.02;101192.84;10251121;28;20119;-68
2021/10/28 23:31:34;;;;;;;14.82;9.60;;;;;;;9.97;86.18;101191.41;10247340;28;20563;-67
2021/10/28 23:36:31;;;;;;;13.90;8.98;;;;;;;9.87;85.92;101187.75;10236615;28;20140;-67
2021/10/28 23:41:28;;;;;;;14.45;9.48;;;;;;;9.80;86.20;101187.34;10255321;28;21033;-67
2021/10/28 23:46:24;;;;;;;13.95;9.50;;;;;;;9.73;85.49;101192.41;10238413;28;20042;-69
2021/10/28 23:51:21;;;;;;;13.13;9.68;;;;;;;9.68;86.27;101189.75;10254430;28;20158;-68
2021/10/28 23:56:17;;;;;;;12.80;9.63;;;;;;;9.52;85.81;101193.88;10246761;28;20106;-69
